Time;durP1;ratioP1;P1;durP2;ratioP2;P2;SDS_P1;SDS_P2;PMS_P1;PMS_P2;Temp;Humidity;BMP_temperature;BMP_pressure;BME280_temperature;BME280_humidity;BME280_pressure;Samples;Min_cycle;Max_cycle;Signal;HPM_P1;HPM_P2
2023/03/15 00:00:51;;;;;;;6.07;1.13;;;3.70;83.00;;;;;;5093765;28;20074;-80
2023/03/15 00:03:16;;;;;;;6.28;1.40;;;3.60;83.30;;;;;;5094835;28;20074;-79
2023/03/15 00:05:47;;;;;;;8.50;1.30;;;3.70;83.20;;;;;;5075465;28;20457;-79
2023/03/15 00:08:13;;;;;;;4.80;1.23;;;3.70;83.30;;;;;;5092317;28;20052;-78
2023/03/15 00:10:40;;;;;;;6.25;1.23;;;3.60;83.60;;;;;;5058968;28;20047;-79
2023/03/15 00:13:06;;;;;;;9.30;1.33;;;3.60;83.90;;;;;;5091667;28;20075;-79
2023/03/15 00:15:32;;;;;;;7.85;1.25;;;3.60;84.00;;;;;;5074327;28;20075;-79
2023/03/15 00:17:58;;;;;;;4.80;1.45;;;3.60;84.00;;;;;;5074898;28;20101;-79
2023/03/15 00:20:23;;;;;;;6.30;1.60;;;3.60;84.20;;;;;;5074495;28;20050;-79
2023/03/15 00:22:49;;;;;;;9.00;1.40;;;3.60;84.00;;;;;;5061193;28;20040;-79
2023/03/15 00:25:15;;;;;;;8.48;1.30;;;3.60;84.30;;;;;;5078875;28;20036;-79
2023/03/15 00:27:41;;;;;;;11.10;1.23;;;3.50;84.30;;;;;;5078772;28;20533;-79
2023/03/15 00:30:07;;;;;;;5.82;1.20;;;3.50;84.40;;;;;;5078779;28;20082;-80
2023/03/15 00:32:33;;;;;;;11.48;1.38;;;3.40;84.20;;;;;;5077967;28;20488;-79
2023/03/15 00:34:58;;;;;;;8.77;2.00;;;3.40;84.30;;;;;;5078705;28;20054;-79
2023/03/15 00:37:24;;;;;;;8.38;1.52;;;3.30;84.30;;;;;;5095570;28;20037;-79
2023/03/15 00:39:50;;;;;;;3.53;1.10;;;3.30;84.20;;;;;;5061511;28;20044;-79
2023/03/15 00:42:16;;;;;;;7.40;1.50;;;3.30;84.20;;;;;;5095341;28;20038;-79
2023/03/15 00:44:44;;;;;;;7.13;1.20;;;3.20;84.10;;;;;;5078292;28;20119;-80
2023/03/15 00:47:11;;;;;;;6.65;1.25;;;3.10;84.10;;;;;;5095112;28;20075;-79
2023/03/15 00:49:38;;;;;;;6.72;1.00;;;3.10;84.10;;;;;;5093937;28;20051;-79
2023/03/15 00:52:04;;;;;;;7.75;1.30;;;3.10;84.00;;;;;;5078350;28;20086;-79
2023/03/15 00:54:32;;;;;;;6.53;1.50;;;3.10;84.10;;;;;;5078287;28;20072;-79
2023/03/15 00:56:59;;;;;;;4.65;1.00;;;3.10;84.10;;;;;;5095158;28;20048;-79
2023/03/15 00:59:26;;;;;;;6.22;1.85;;;3.10;84.00;;;;;;5094812;28;20044;-79
2023/03/15 01:01:52;;;;;;;8.40;1.30;;;3.00;83.90;;;;;;5077969;28;20067;-79
2023/03/15 01:04:18;;;;;;;9.05;1.27;;;3.00;83.90;;;;;;5061585;28;20063;-79
2023/03/15 01:06:43;;;;;;;6.60;1.27;;;3.00;84.10;;;;;;5077619;28;20059;-79
2023/03/15 01:09:09;;;;;;;4.97;1.30;;;2.90;84.00;;;;;;5094878;28;20119;-79
2023/03/15 01:11:35;;;;;;;8.80;1.30;;;3.00;84.10;;;;;;5077993;28;20117;-79
2023/03/15 01:14:03;;;;;;;6.30;1.30;;;3.00;83.60;;;;;;5094544;28;20039;-79
2023/03/15 01:16:29;;;;;;;7.55;1.58;;;3.10;83.60;;;;;;5077979;28;20046;-78
2023/03/15 01:18:55;;;;;;;12.50;2.05;;;3.30;84.20;;;;;;5094378;28;20450;-78
2023/03/15 01:21:22;;;;;;;13.10;1.90;;;3.30;84.90;;;;;;5060932;28;20039;-78
2023/03/15 01:23:48;;;;;;;3.92;1.30;;;3.40;85.30;;;;;;5077304;28;20039;-78
2023/03/15 01:26:16;;;;;;;7.13;1.67;;;3.40;85.50;;;;;;5077846;28;20489;-78
2023/03/15 01:28:41;;;;;;;6.00;1.55;;;3.30;85.80;;;;;;5077415;28;20044;-77
2023/03/15 01:31:16;;;;;;;10.13;1.85;;;3.30;86.00;;;;;;5079493;28;20399;-77
2023/03/15 01:33:41;;;;;;;;;;;3.20;86.30;;;;;;5096853;28;20041;-77
2023/03/15 01:36:07;;;;;;;4.90;1.08;;;3.20;86.40;;;;;;5064329;28;20417;-77
2023/03/15 01:38:34;;;;;;;5.25;0.95;;;3.10;86.60;;;;;;5094038;28;20036;-77
2023/03/15 01:40:59;;;;;;;7.63;1.58;;;3.10;86.80;;;;;;5092580;28;20466;-77
2023/03/15 01:43:30;;;;;;;5.78;1.13;;;3.00;86.90;;;;;;5077489;28;20071;-77
2023/03/15 01:46:02;;;;;;;4.78;1.13;;;3.00;87.20;;;;;;5093978;28;20040;-77
2023/03/15 01:48:27;;;;;;;6.88;1.10;;;3.00;87.20;;;;;;5077283;28;20512;-77
2023/03/15 01:50:54;;;;;;;11.10;1.70;;;3.00;87.10;;;;;;5076974;28;20075;-77
2023/03/15 01:53:25;;;;;;;6.00;0.98;;;2.80;87.10;;;;;;5093835;28;20043;-77
2023/03/15 01:55:52;;;;;;;5.07;1.67;;;2.80;87.20;;;;;;5076104;28;20047;-77
2023/03/15 01:58:21;;;;;;;4.70;1.42;;;2.80;87.20;;;;;;5077235;28;20397;-77
2023/03/15 02:00:47;;;;;;;4.97;0.98;;;2.80;87.30;;;;;;5093567;28;20048;-77
2023/03/15 02:03:19;;;;;;;4.63;1.13;;;2.80;87.30;;;;;;5076855;28;20040;-76
2023/03/15 02:05:57;;;;;;;5.90;0.90;;;2.80;87.20;;;;;;5093667;28;20048;-78
2023/03/15 02:08:28;;;;;;;5.63;0.80;;;2.80;87.20;;;;;;5076562;28;20396;-76
2023/03/15 02:10:57;;;;;;;5.55;1.02;;;2.70;87.10;;;;;;5076592;28;20040;-77
2023/03/15 02:13:25;;;;;;;3.92;0.70;;;2.70;87.10;;;;;;5092461;28;20047;-77
2023/03/15 02:15:52;;;;;;;8.95;2.08;;;2.70;87.10;;;;;;5093570;28;20131;-76
2023/03/15 02:18:19;;;;;;;4.07;0.93;;;2.60;87.00;;;;;;5093357;28;20047;-77
2023/03/15 02:21:11;;;;;;;3.58;0.70;;;2.60;87.00;;;;;;5093164;28;20087;-77
2023/03/15 02:23:37;;;;;;;2.63;0.63;;;2.60;86.90;;;;;;5076443;28;20131;-77
2023/03/15 02:26:18;;;;;;;6.25;1.33;;;2.50;86.90;;;;;;5093428;28;20127;-77
2023/03/15 02:28:45;;;;;;;7.55;1.20;;;2.50;86.80;;;;;;5076511;28;20459;-77
2023/03/15 02:31:11;;;;;;;5.20;1.05;;;2.40;86.70;;;;;;5075648;28;20032;-77
2023/03/15 02:33:44;;;;;;;5.82;1.50;;;2.40;86.80;;;;;;5076187;28;20507;-77
2023/03/15 02:36:21;;;;;;;8.30;1.43;;;2.40;86.80;;;;;;5093031;28;20032;-77
2023/03/15 02:38:48;;;;;;;4.10;0.95;;;2.30;86.70;;;;;;5092831;28;20561;-77
2023/03/15 02:41:19;;;;;;;9.52;1.90;;;2.40;86.70;;;;;;5076010;28;20077;-77
2023/03/15 02:43:48;;;;;;;7.25;1.60;;;2.40;86.70;;;;;;5093329;28;20048;-77
2023/03/15 02:46:15;;;;;;;7.65;1.35;;;2.40;86.50;;;;;;5060829;28;20477;-77
2023/03/15 02:48:43;;;;;;;10.20;1.00;;;2.50;86.50;;;;;;5056302;28;20068;-77
2023/03/15 02:51:18;;;;;;;7.05;1.40;;;2.40;86.10;;;;;;5055647;28;20043;-77
2023/03/15 02:53:44;;;;;;;8.18;1.85;;;2.40;86.10;;;;;;5072682;28;20366;-78
2023/03/15 02:56:10;;;;;;;6.35;1.55;;;2.50;85.80;;;;;;5072481;28;20043;-77
2023/03/15 02:58:35;;;;;;;9.43;1.48;;;2.60;85.20;;;;;;5056069;28;20037;-77
2023/03/15 03:01:01;;;;;;;8.50;1.92;;;2.50;84.90;;;;;;5076134;28;20515;-77
2023/03/15 03:03:27;;;;;;;4.82;1.10;;;2.60;84.60;;;;;;5092321;28;20047;-77
2023/03/15 03:05:52;;;;;;;5.45;1.20;;;2.60;84.60;;;;;;5075529;28;20035;-78
2023/03/15 03:08:18;;;;;;;8.70;1.33;;;2.60;84.40;;;;;;5075148;28;20052;-78
2023/03/15 03:10:43;;;;;;;8.05;1.40;;;2.60;84.50;;;;;;5075374;28;20129;-77
2023/03/15 03:13:09;;;;;;;9.55;2.08;;;2.60;84.60;;;;;;5042486;28;20039;-77
2023/03/15 03:15:35;;;;;;;7.47;1.48;;;2.50;84.50;;;;;;5075433;28;20075;-78
2023/03/15 03:18:01;;;;;;;6.93;1.48;;;2.50;84.70;;;;;;5091339;28;20045;-78
2023/03/15 03:20:26;;;;;;;11.30;1.40;;;2.50;84.70;;;;;;5058544;28;20450;-78
2023/03/15 03:22:54;;;;;;;6.20;1.60;;;2.50;84.80;;;;;;5075209;28;20097;-78
2023/03/15 03:25:20;;;;;;;5.53;1.30;;;2.40;84.90;;;;;;5075355;28;20047;-78
2023/03/15 03:27:46;;;;;;;5.90;1.25;;;2.40;85.00;;;;;;5092067;28;20032;-77
2023/03/15 03:30:13;;;;;;;7.18;1.42;;;2.30;85.10;;;;;;5075147;28;20101;-78
2023/03/15 03:32:40;;;;;;;10.75;1.30;;;2.40;85.30;;;;;;5090891;28;20040;-78
2023/03/15 03:35:06;;;;;;;7.28;1.98;;;2.30;85.30;;;;;;5058808;28;20039;-78
2023/03/15 03:37:32;;;;;;;5.78;1.15;;;2.30;85.40;;;;;;5091789;28;20051;-77
2023/03/15 03:39:58;;;;;;;8.48;2.05;;;2.30;85.50;;;;;;5075037;28;20036;-78
2023/03/15 03:42:23;;;;;;;10.05;1.40;;;2.20;85.60;;;;;;5075357;28;20471;-78
2023/03/15 03:44:49;;;;;;;5.40;2.55;;;2.20;85.80;;;;;;5074991;28;20403;-78
2023/03/15 03:47:15;;;;;;;6.90;1.45;;;2.10;85.90;;;;;;5091984;28;20118;-78
2023/03/15 03:49:41;;;;;;;10.15;1.35;;;2.10;85.90;;;;;;5090762;28;20453;-77
2023/03/15 03:52:06;;;;;;;9.60;1.20;;;2.10;86.00;;;;;;5075055;28;20052;-78
2023/03/15 03:54:32;;;;;;;4.78;1.23;;;2.00;86.20;;;;;;5058128;28;20453;-77
2023/03/15 03:56:59;;;;;;;5.65;1.20;;;2.00;86.30;;;;;;5074030;28;20050;-77
2023/03/15 03:59:24;;;;;;;12.15;1.52;;;2.10;86.40;;;;;;5074743;28;20214;-77
2023/03/15 04:01:50;;;;;;;5.78;1.05;;;1.90;86.80;;;;;;5074868;28;20036;-78
2023/03/15 04:04:16;;;;;;;6.35;1.13;;;1.80;87.20;;;;;;5090639;28;20032;-77
2023/03/15 04:06:45;;;;;;;5.60;1.55;;;1.70;87.80;;;;;;5091591;28;20491;-78
2023/03/15 04:09:12;;;;;;;6.97;1.48;;;1.60;87.20;;;;;;5091335;28;20098;-78
2023/03/15 04:11:42;;;;;;;8.10;1.20;;;1.60;87.20;;;;;;5091583;28;20496;-77
2023/03/15 04:14:12;;;;;;;6.45;1.67;;;1.50;87.40;;;;;;5074479;28;20086;-77
2023/03/15 04:16:38;;;;;;;2.83;1.20;;;1.50;87.50;;;;;;5058214;28;20040;-77
2023/03/15 04:19:04;;;;;;;5.57;1.15;;;1.40;87.80;;;;;;5074395;28;20089;-77
2023/03/15 04:21:30;;;;;;;6.45;1.15;;;1.30;88.40;;;;;;5090166;28;20119;-78
2023/03/15 04:24:02;;;;;;;8.27;1.52;;;1.30;88.90;;;;;;5091295;28;20047;-77
2023/03/15 04:26:28;;;;;;;7.43;1.50;;;1.30;88.30;;;;;;5074729;28;20036;-77
2023/03/15 04:28:56;;;;;;;10.98;2.40;;;1.30;88.30;;;;;;5074578;28;20036;-77
2023/03/15 04:31:26;;;;;;;6.15;1.45;;;1.30;88.20;;;;;;5102080;28;20040;-77
2023/03/15 04:33:55;;;;;;;9.02;1.65;;;1.30;88.60;;;;;;5068926;28;20503;-78
2023/03/15 04:36:22;;;;;;;7.95;1.77;;;1.30;88.60;;;;;;5083990;28;20032;-79
2023/03/15 04:38:49;;;;;;;5.67;1.27;;;1.30;88.60;;;;;;5063645;28;20036;-79
2023/03/15 04:41:16;;;;;;;6.28;1.55;;;1.40;89.10;;;;;;5071546;28;20033;-77
2023/03/15 04:43:42;;;;;;;7.38;1.40;;;1.30;90.00;;;;;;5067962;28;20450;-77
2023/03/15 04:46:08;;;;;;;5.30;1.05;;;1.30;90.00;;;;;;5075173;28;20074;-77
2023/03/15 04:48:34;;;;;;;5.55;1.67;;;1.30;90.30;;;;;;5091695;28;20091;-77
2023/03/15 04:51:00;;;;;;;3.67;1.00;;;1.30;90.20;;;;;;5074748;28;20082;-77
2023/03/15 04:53:26;;;;;;;3.17;1.02;;;1.40;90.50;;;;;;5091290;28;20044;-77
2023/03/15 04:55:51;;;;;;;3.92;1.27;;;1.40;89.80;;;;;;5090452;28;20104;-77
2023/03/15 04:58:18;;;;;;;5.93;1.10;;;1.40;89.60;;;;;;5074799;28;20078;-77
2023/03/15 05:00:44;;;;;;;8.48;1.23;;;1.40;90.00;;;;;;5091294;28;20484;-77
2023/03/15 05:03:10;;;;;;;5.43;0.88;;;1.30;90.30;;;;;;5057883;28;20036;-77
2023/03/15 05:05:35;;;;;;;5.10;0.90;;;1.20;90.20;;;;;;5074609;28;20040;-77
2023/03/15 05:08:01;;;;;;;4.13;0.93;;;1.40;90.10;;;;;;5092784;28;20082;-76
2023/03/15 05:10:29;;;;;;;4.43;0.85;;;1.30;90.50;;;;;;5061549;28;20407;-76
2023/03/15 05:12:55;;;;;;;4.10;0.98;;;1.20;90.30;;;;;;5094197;28;20047;-77
2023/03/15 05:15:21;;;;;;;5.78;1.17;;;1.20;90.50;;;;;;5094920;28;20098;-77
2023/03/15 05:17:47;;;;;;;4.82;1.00;;;1.20;90.50;;;;;;5078331;28;20392;-77
2023/03/15 05:20:15;;;;;;;4.35;0.93;;;1.10;90.50;;;;;;5077930;28;20127;-77
2023/03/15 05:22:41;;;;;;;6.13;1.00;;;1.20;90.90;;;;;;5078119;28;20079;-77
2023/03/15 05:25:09;;;;;;;2.67;1.13;;;1.20;91.20;;;;;;5094571;28;20040;-77
2023/03/15 05:27:35;;;;;;;6.95;1.45;;;1.20;91.30;;;;;;5093380;28;20038;-77
2023/03/15 05:30:02;;;;;;;6.78;1.40;;;1.30;91.10;;;;;;5094707;28;21114;-77
2023/03/15 05:32:29;;;;;;;11.10;1.63;;;1.30;91.10;;;;;;5094609;28;20052;-78
2023/03/15 05:34:54;;;;;;;8.90;1.75;;;1.30;91.10;;;;;;5061445;28;20048;-78
2023/03/15 05:37:21;;;;;;;12.95;3.53;;;1.20;91.40;;;;;;5077347;28;20119;-78
2023/03/15 05:39:47;;;;;;;7.75;1.50;;;1.30;91.00;;;;;;5077299;28;20130;-78
2023/03/15 05:42:14;;;;;;;5.55;1.35;;;1.30;91.20;;;;;;5076651;28;20119;-77
2023/03/15 05:44:40;;;;;;;10.50;2.20;;;1.30;91.40;;;;;;5094200;28;20040;-77
2023/03/15 05:47:06;;;;;;;8.90;1.40;;;1.20;91.60;;;;;;5077013;28;20495;-76
2023/03/15 05:49:32;;;;;;;6.63;2.00;;;1.20;91.50;;;;;;5093270;28;20044;-79
2023/03/15 05:51:57;;;;;;;9.65;1.52;;;1.20;91.50;;;;;;5093329;28;20090;-76
2023/03/15 05:54:23;;;;;;;9.07;1.77;;;1.20;91.40;;;;;;5060541;28;20139;-76
2023/03/15 05:56:49;;;;;;;7.00;1.33;;;1.20;91.40;;;;;;5077242;28;20132;-76
2023/03/15 05:59:14;;;;;;;6.82;0.93;;;1.20;91.80;;;;;;5060142;28;20452;-76
2023/03/15 06:01:40;;;;;;;8.27;2.00;;;1.10;92.00;;;;;;5076744;28;20169;-78
2023/03/15 06:04:06;;;;;;;8.05;2.90;;;1.10;91.70;;;;;;5093849;28;20028;-77
2023/03/15 06:06:31;;;;;;;9.10;1.50;;;1.10;92.10;;;;;;5077046;28;20517;-77
2023/03/15 06:08:57;;;;;;;11.05;1.95;;;1.10;92.00;;;;;;5093412;28;20508;-78
2023/03/15 06:11:23;;;;;;;9.73;1.50;;;1.00;92.10;;;;;;5076521;28;20048;-77
2023/03/15 06:13:48;;;;;;;10.13;1.70;;;1.00;91.80;;;;;;5093422;28;20036;-77
2023/03/15 06:16:14;;;;;;;6.88;1.73;;;1.10;91.80;;;;;;5076555;28;20128;-77
2023/03/15 06:18:40;;;;;;;8.43;1.42;;;1.00;92.00;;;;;;5076219;28;20032;-77
2023/03/15 06:21:05;;;;;;;10.77;1.77;;;1.00;92.20;;;;;;5092557;28;20044;-76
2023/03/15 06:23:31;;;;;;;8.45;2.10;;;0.90;92.00;;;;;;5076412;28;20043;-76
2023/03/15 06:25:57;;;;;;;8.07;1.65;;;0.90;91.90;;;;;;5076375;28;20048;-76
2023/03/15 06:28:22;;;;;;;10.10;1.80;;;0.90;92.00;;;;;;5076248;28;20163;-77
2023/03/15 06:30:48;;;;;;;6.55;1.50;;;0.90;92.10;;;;;;5076258;28;20040;-77
2023/03/15 06:33:14;;;;;;;7.32;2.33;;;0.80;92.10;;;;;;5076458;28;20042;-77
2023/03/15 06:35:40;;;;;;;9.07;2.13;;;0.90;92.00;;;;;;5076503;28;20126;-78
2023/03/15 06:38:05;;;;;;;8.60;1.45;;;1.00;92.00;;;;;;5060183;28;20131;-78
2023/03/15 06:40:31;;;;;;;6.32;1.48;;;0.90;92.10;;;;;;5092984;28;20040;-77
2023/03/15 06:42:57;;;;;;;7.18;1.27;;;0.90;92.30;;;;;;5093005;28;20502;-78
2023/03/15 06:45:22;;;;;;;10.88;2.03;;;0.90;92.50;;;;;;5093032;28;20040;-77
2023/03/15 06:47:48;;;;;;;7.72;2.00;;;0.90;92.60;;;;;;5075995;28;20047;-78
2023/03/15 06:50:14;;;;;;;8.93;1.77;;;0.90;92.80;;;;;;5075748;28;20052;-78
2023/03/15 06:52:40;;;;;;;5.55;1.40;;;1.00;92.40;;;;;;5093104;28;20048;-77
2023/03/15 06:55:06;;;;;;;5.35;1.60;;;1.10;92.20;;;;;;5075820;28;20488;-78
2023/03/15 06:57:32;;;;;;;8.02;2.47;;;1.10;92.20;;;;;;5075684;28;20044;-77
2023/03/15 06:59:57;;;;;;;6.05;1.30;;;1.10;92.50;;;;;;5075496;28;20047;-78
2023/03/15 07:02:23;;;;;;;5.38;2.05;;;1.20;92.70;;;;;;5075694;28;20043;-78
2023/03/15 07:04:48;;;;;;;8.77;1.45;;;1.20;92.80;;;;;;5092442;28;20032;-78
2023/03/15 07:07:14;;;;;;;8.00;2.35;;;1.40;92.30;;;;;;5092503;28;20043;-78
2023/03/15 07:09:40;;;;;;;7.65;1.83;;;1.60;92.10;;;;;;5058937;28;20044;-77
2023/03/15 07:12:08;;;;;;;11.20;1.75;;;1.80;91.80;;;;;;5059053;28;20044;-77
2023/03/15 07:14:34;;;;;;;6.40;1.33;;;1.90;91.70;;;;;;5075637;28;20383;-77
2023/03/15 07:16:59;;;;;;;4.55;1.10;;;2.10;91.50;;;;;;5092182;28;20127;-77
2023/03/15 07:19:25;;;;;;;5.25;0.93;;;2.10;91.30;;;;;;5078744;28;20047;-78
2023/03/15 07:21:51;;;;;;;5.65;1.27;;;2.10;91.20;;;;;;5056319;28;20067;-78
2023/03/15 07:24:17;;;;;;;2.72;0.80;;;2.20;91.40;;;;;;5072904;28;20480;-77
2023/03/15 07:26:43;;;;;;;3.65;0.82;;;2.30;91.30;;;;;;5056186;28;20362;-78
2023/03/15 07:29:09;;;;;;;4.28;0.90;;;2.30;91.40;;;;;;5072541;28;20158;-78
2023/03/15 07:31:35;;;;;;;4.63;1.00;;;2.30;91.50;;;;;;5055583;28;20121;-78
2023/03/15 07:34:01;;;;;;;4.63;1.20;;;2.40;91.30;;;;;;5055378;28;20445;-78
2023/03/15 07:36:31;;;;;;;3.65;0.85;;;2.40;91.30;;;;;;5022205;28;20093;-78
2023/03/15 07:38:56;;;;;;;6.47;1.10;;;2.60;91.30;;;;;;5056033;28;20032;-77
2023/03/15 07:41:22;;;;;;;2.45;1.00;;;2.60;91.10;;;;;;5055823;28;20384;-78
2023/03/15 07:43:48;;;;;;;4.20;1.20;;;2.70;91.00;;;;;;5039072;28;20614;-78
2023/03/15 07:46:13;;;;;;;5.45;0.98;;;2.80;90.70;;;;;;5071735;28;20081;-79
2023/03/15 07:48:40;;;;;;;3.50;0.80;;;2.80;90.60;;;;;;5055470;28;20094;-78
2023/03/15 07:51:05;;;;;;;3.95;1.10;;;2.90;90.10;;;;;;5038710;28;20515;-79
2023/03/15 07:53:31;;;;;;;2.10;0.90;;;3.00;89.90;;;;;;5071997;28;20049;-78
2023/03/15 07:55:57;;;;;;;3.00;0.75;;;3.10;89.60;;;;;;5072118;28;20044;-79
2023/03/15 07:58:23;;;;;;;3.30;0.60;;;3.20;89.40;;;;;;5055713;28;20047;-79
2023/03/15 08:00:48;;;;;;;3.47;0.68;;;3.30;89.10;;;;;;5055674;28;20464;-78
2023/03/15 08:03:14;;;;;;;6.05;1.17;;;3.40;88.50;;;;;;5055447;28;20040;-78
2023/03/15 08:05:40;;;;;;;4.20;0.80;;;3.40;88.00;;;;;;5038783;28;20110;-78
2023/03/15 08:08:06;;;;;;;4.68;0.70;;;3.50;87.70;;;;;;5055224;28;20044;-78
2023/03/15 08:10:32;;;;;;;3.22;0.90;;;3.50;87.50;;;;;;5055232;28;20040;-78
2023/03/15 08:12:57;;;;;;;3.35;0.85;;;3.50;87.40;;;;;;5072048;28;20044;-78
2023/03/15 08:15:23;;;;;;;5.22;0.80;;;3.60;87.40;;;;;;5071877;28;20040;-78
2023/03/15 08:17:49;;;;;;;1.48;0.70;;;3.70;87.00;;;;;;5071912;28;20052;-78
2023/03/15 08:20:18;;;;;;;4.32;0.98;;;3.80;86.30;;;;;;5071876;28;20044;-78
2023/03/15 08:22:45;;;;;;;4.18;0.93;;;3.90;85.70;;;;;;5039233;28;20441;-79
2023/03/15 08:25:12;;;;;;;3.65;0.80;;;4.00;85.00;;;;;;5055637;28;20048;-79
2023/03/15 08:27:38;;;;;;;4.72;0.60;;;4.10;83.80;;;;;;5055840;28;20098;-79
2023/03/15 08:30:07;;;;;;;3.20;0.88;;;4.10;83.50;;;;;;5072034;28;20488;-78
2023/03/15 08:32:33;;;;;;;3.25;0.60;;;4.20;83.10;;;;;;5055511;28;20044;-78
2023/03/15 08:34:59;;;;;;;3.88;0.95;;;4.30;82.40;;;;;;5055198;28;20045;-79
2023/03/15 08:37:24;;;;;;;2.35;0.52;;;4.40;81.30;;;;;;5071737;28;20036;-79
2023/03/15 08:39:59;;;;;;;3.25;0.60;;;4.50;81.30;;;;;;5071486;28;20051;-78
2023/03/15 08:42:26;;;;;;;2.78;0.88;;;4.60;80.40;;;;;;5072359;28;20036;-78
2023/03/15 08:44:52;;;;;;;2.50;0.70;;;4.60;80.20;;;;;;5074499;28;20040;-78
2023/03/15 08:47:18;;;;;;;2.33;0.70;;;4.70;79.70;;;;;;5056750;28;20036;-78
2023/03/15 08:49:43;;;;;;;3.03;0.60;;;4.90;79.40;;;;;;5041013;28;20076;-79
2023/03/15 08:52:09;;;;;;;3.67;0.60;;;4.90;78.90;;;;;;5074479;28;20040;-78
2023/03/15 08:54:35;;;;;;;3.83;0.70;;;5.00;79.00;;;;;;5040855;28;20105;-78
2023/03/15 08:57:01;;;;;;;8.73;1.48;;;5.10;79.10;;;;;;5074522;28;20041;-79
2023/03/15 08:59:27;;;;;;;1.30;0.80;;;5.20;79.00;;;;;;5057624;28;20509;-79
2023/03/15 09:01:52;;;;;;;6.85;1.08;;;5.30;79.00;;;;;;5064011;28;20032;-79
2023/03/15 09:04:18;;;;;;;2.92;1.00;;;5.40;79.20;;;;;;5051576;28;20218;-78
2023/03/15 09:06:44;;;;;;;9.27;1.17;;;5.60;79.20;;;;;;5084048;28;20068;-80
2023/03/15 09:09:10;;;;;;;2.83;1.00;;;5.60;79.10;;;;;;5084136;28;20052;-80
2023/03/15 09:11:36;;;;;;;5.43;1.38;;;5.70;78.00;;;;;;5064455;28;20045;-79
2023/03/15 09:14:01;;;;;;;9.48;2.13;;;5.80;78.20;;;;;;5057902;28;20040;-78
2023/03/15 09:16:27;;;;;;;6.68;1.40;;;5.90;78.40;;;;;;5057985;28;20079;-78
2023/03/15 09:18:53;;;;;;;6.43;1.60;;;6.00;78.20;;;;;;5074284;28;20098;-78
2023/03/15 09:21:19;;;;;;;5.53;1.10;;;6.10;77.60;;;;;;5041045;28;20047;-78
2023/03/15 09:23:44;;;;;;;4.78;1.27;;;6.00;77.30;;;;;;5041181;28;20044;-78
2023/03/15 09:26:10;;;;;;;4.55;1.00;;;6.10;78.00;;;;;;5074119;28;20397;-77
2023/03/15 09:28:36;;;;;;;8.40;1.10;;;6.20;78.50;;;;;;5057393;28;20128;-78
2023/03/15 09:31:05;;;;;;;9.27;1.60;;;6.30;78.10;;;;;;5057612;28;20036;-78
2023/03/15 09:33:32;;;;;;;9.77;2.47;;;6.40;78.00;;;;;;5073885;28;20036;-78
2023/03/15 09:35:58;;;;;;;6.85;2.28;;;6.40;77.40;;;;;;5073815;28;20056;-78
2023/03/15 09:38:24;;;;;;;6.40;2.53;;;6.50;77.00;;;;;;5057443;28;20033;-78
2023/03/15 09:40:54;;;;;;;9.05;1.70;;;6.50;76.40;;;;;;5057177;28;20131;-80
2023/03/15 09:44:08;;;;;;;8.73;2.38;;;6.60;75.40;;;;;;5057394;28;20063;-79
2023/03/15 09:46:42;;;;;;;6.85;1.50;;;6.70;74.80;;;;;;5016196;28;20120;-78
2023/03/15 09:49:29;;;;;;;;;;;6.80;75.30;;;;;;5070393;28;20443;-79
2023/03/15 09:52:21;;;;;;;7.60;2.40;;;6.90;74.80;;;;;;5057314;28;19916;-79
2023/03/15 09:54:57;;;;;;;7.68;1.88;;;6.80;72.70;;;;;;5044298;28;20056;-79
2023/03/15 09:57:40;;;;;;;6.88;1.20;;;6.60;71.90;;;;;;5073627;28;20124;-79
2023/03/15 10:00:11;;;;;;;8.00;2.13;;;6.50;70.90;;;;;;5056783;28;20123;-79
2023/03/15 10:02:41;;;;;;;9.82;2.60;;;6.40;70.90;;;;;;5056932;28;20036;-78
2023/03/15 10:05:21;;;;;;;6.22;1.60;;;6.50;71.50;;;;;;5073610;28;20388;-79
2023/03/15 10:07:47;;;;;;;7.32;1.48;;;6.60;72.00;;;;;;5073568;28;20149;-79
2023/03/15 10:10:26;;;;;;;9.18;1.27;;;6.60;71.80;;;;;;5056653;28;20652;-79
2023/03/15 10:13:14;;;;;;;8.77;2.55;;;6.80;69.50;;;;;;5073347;28;20075;-79
2023/03/15 10:15:49;;;;;;;7.35;1.73;;;7.00;70.30;;;;;;5073555;28;20373;-79
2023/03/15 10:18:35;;;;;;;6.35;1.33;;;7.00;68.10;;;;;;5073477;28;20125;-79
2023/03/15 10:21:15;;;;;;;4.50;1.42;;;7.00;67.30;;;;;;5062693;28;20048;-78
2023/03/15 10:23:48;;;;;;;4.43;1.15;;;7.00;65.70;;;;;;5082038;28;20489;-79
2023/03/15 10:26:18;;;;;;;4.63;1.40;;;7.00;67.20;;;;;;5087835;28;20028;-79
2023/03/15 10:28:44;;;;;;;7.15;1.50;;;7.00;66.80;;;;;;5093329;28;20040;-79
2023/03/15 10:31:14;;;;;;;7.00;1.40;;;6.90;65.60;;;;;;5093419;28;20042;-78
2023/03/15 10:33:41;;;;;;;5.45;1.70;;;6.90;65.40;;;;;;5093410;28;20151;-80
2023/03/15 10:36:19;;;;;;;5.25;1.42;;;6.80;65.20;;;;;;5075947;28;20249;-78
2023/03/15 10:38:47;;;;;;;8.52;1.40;;;7.00;64.10;;;;;;5093285;28;20145;-78
2023/03/15 10:41:26;;;;;;;4.65;1.85;;;7.20;64.40;;;;;;5092791;28;20119;-79
2023/03/15 10:43:59;;;;;;;7.22;1.90;;;7.40;64.80;;;;;;5092845;28;20085;-77
2023/03/15 10:46:25;;;;;;;6.50;2.10;;;7.70;63.80;;;;;;5093348;28;20050;-78
2023/03/15 10:49:12;;;;;;;5.90;1.40;;;7.80;60.80;;;;;;5059545;28;20040;-77
2023/03/15 10:51:44;;;;;;;8.43;1.80;;;7.90;61.60;;;;;;5076214;28;20035;-77
2023/03/15 10:54:21;;;;;;;5.85;1.60;;;8.10;62.70;;;;;;5092788;28;20040;-77
2023/03/15 10:57:04;;;;;;;10.20;1.80;;;8.20;62.30;;;;;;5075978;28;20052;-77
2023/03/15 10:59:33;;;;;;;7.63;1.92;;;8.30;60.70;;;;;;5092761;28;20409;-78
2023/03/15 11:02:11;;;;;;;5.50;1.55;;;8.30;59.60;;;;;;5092522;28;20071;-77
2023/03/15 11:05:14;;;;;;;6.00;1.77;;;8.30;59.10;;;;;;5092493;28;20128;-77
2023/03/15 11:07:56;;;;;;;5.25;1.27;;;8.40;60.00;;;;;;5075627;28;20392;-78
2023/03/15 11:10:25;;;;;;;6.38;1.70;;;8.50;58.40;;;;;;5092668;28;20051;-78
2023/03/15 11:13:27;;;;;;;11.30;1.88;;;8.50;58.80;;;;;;5092358;28;20040;-77
2023/03/15 11:16:11;;;;;;;7.15;1.40;;;8.50;59.20;;;;;;5092289;28;20044;-77
2023/03/15 11:18:43;;;;;;;8.13;1.80;;;8.30;57.60;;;;;;5092562;28;20039;-77
2023/03/15 11:21:15;;;;;;;7.70;1.20;;;8.30;58.30;;;;;;5092428;28;20518;-76
2023/03/15 11:23:51;;;;;;;6.78;1.63;;;8.20;56.00;;;;;;5073426;28;20041;-77
2023/03/15 11:26:23;;;;;;;6.68;2.00;;;8.10;56.60;;;;;;5072100;28;20041;-77
2023/03/15 11:28:59;;;;;;;7.43;1.45;;;8.00;56.50;;;;;;5072046;28;20484;-76
2023/03/15 11:31:27;;;;;;;6.97;1.60;;;8.10;58.10;;;;;;5071104;28;20441;-77
2023/03/15 11:34:24;;;;;;;5.47;1.48;;;8.10;58.00;;;;;;5072196;28;20048;-76
2023/03/15 11:36:57;;;;;;;5.03;1.48;;;8.20;58.90;;;;;;5059199;28;20080;-77
2023/03/15 11:39:56;;;;;;;6.22;0.98;;;8.50;57.80;;;;;;5071947;28;20051;-77
2023/03/15 11:42:29;;;;;;;5.70;2.17;;;8.60;57.10;;;;;;5051810;28;20048;-76
2023/03/15 11:45:01;;;;;;;17.57;2.03;;;8.70;54.90;;;;;;5071717;28;20043;-77
2023/03/15 11:47:49;;;;;;;5.03;1.20;;;8.80;55.20;;;;;;5071845;28;20431;-77
2023/03/15 11:50:15;;;;;;;5.25;1.58;;;8.80;55.70;;;;;;5071480;28;20174;-77
2023/03/15 11:52:42;;;;;;;4.75;1.00;;;8.90;55.10;;;;;;5038528;28;20388;-76
2023/03/15 11:55:18;;;;;;;3.90;1.13;;;9.00;54.80;;;;;;5071429;28;20048;-76
2023/03/15 11:57:45;;;;;;;3.38;1.20;;;8.90;52.30;;;;;;5071581;28;20123;-77
2023/03/15 12:00:18;;;;;;;4.95;1.20;;;8.80;54.60;;;;;;5071471;28;20063;-77
2023/03/15 12:02:49;;;;;;;7.00;1.60;;;8.70;54.20;;;;;;5071742;28;20044;-76
2023/03/15 12:05:42;;;;;;;5.32;1.40;;;8.90;55.90;;;;;;5071761;28;20044;-76
2023/03/15 12:08:35;;;;;;;8.02;1.80;;;9.00;55.80;;;;;;5045137;28;20447;-76
2023/03/15 12:11:08;;;;;;;7.57;2.25;;;9.10;54.60;;;;;;5071487;28;20044;-77
2023/03/15 12:13:35;;;;;;;7.28;1.67;;;9.00;54.90;;;;;;5071345;28;20052;-77
2023/03/15 12:16:04;;;;;;;6.82;1.88;;;9.20;55.40;;;;;;5054976;28;20101;-77
2023/03/15 12:18:42;;;;;;;6.93;1.55;;;9.10;54.90;;;;;;5054661;28;20044;-76
2023/03/15 12:21:12;;;;;;;6.45;1.73;;;9.10;54.20;;;;;;5071369;28;20056;-76
2023/03/15 12:23:42;;;;;;;5.32;1.65;;;9.30;55.60;;;;;;5054816;28;20041;-77
2023/03/15 12:26:35;;;;;;;6.22;1.90;;;9.50;54.30;;;;;;5071363;28;20116;-77
2023/03/15 12:29:05;;;;;;;8.73;2.70;;;9.60;54.20;;;;;;5054572;28;20043;-76
2023/03/15 12:31:56;;;;;;;5.05;1.45;;;9.60;53.20;;;;;;5054708;28;20032;-76
2023/03/15 12:34:27;;;;;;;6.78;1.83;;;9.50;50.10;;;;;;5071378;28;20036;-76
2023/03/15 12:37:02;;;;;;;5.45;1.90;;;9.70;51.40;;;;;;5071536;28;20391;-77
2023/03/15 12:39:35;;;;;;;7.00;1.42;;;9.80;52.10;;;;;;5054365;28;20041;-77
2023/03/15 12:42:02;;;;;;;10.32;1.85;;;9.80;51.40;;;;;;5071315;28;20036;-76
2023/03/15 12:44:31;;;;;;;4.45;0.90;;;9.70;53.40;;;;;;5071332;28;20108;-78
2023/03/15 12:47:01;;;;;;;5.68;2.25;;;9.50;55.20;;;;;;5071193;28;20389;-77
2023/03/15 12:49:33;;;;;;;9.35;4.07;;;9.50;56.70;;;;;;5070902;28;20048;-77
2023/03/15 12:52:27;;;;;;;5.63;1.42;;;9.30;53.40;;;;;;5054176;28;20094;-76
2023/03/15 12:55:13;;;;;;;3.93;1.30;;;9.30;52.90;;;;;;5070976;28;20044;-77
2023/03/15 12:57:47;;;;;;;6.47;1.38;;;9.50;51.10;;;;;;5071048;28;20548;-77
2023/03/15 13:00:14;;;;;;;;;;;9.50;51.30;;;;;;5054461;28;20052;-76
2023/03/15 13:02:44;;;;;;;6.32;1.38;;;9.50;50.90;;;;;;5070799;28;19924;-77
2023/03/15 13:05:16;;;;;;;5.60;1.10;;;9.60;53.00;;;;;;5070652;28;20040;-77
2023/03/15 13:07:51;;;;;;;6.40;1.30;;;9.60;51.80;;;;;;5053953;28;20039;-77